Time;durP1;ratioP1;P1;durP2;ratioP2;P2;SDS_P1;SDS_P2;PMS_P1;PMS_P2;Temp;Humidity;BMP_temperature;BMP_pressure;BME280_temperature;BME280_humidity;BME280_pressure;Samples;Min_cycle;Max_cycle;Signal;HPM_P1;HPM_P2
2023/12/07 00:01:00;;;;;;;12.15;8.40;;;2.60;99.90;;;;;;5103371;28;20064;-76
2023/12/07 00:03:25;;;;;;;8.68;7.78;;;2.60;99.90;;;;;;5121589;27;20375;-76
2023/12/07 00:05:51;;;;;;;12.82;8.82;;;2.60;99.90;;;;;;5104018;28;20478;-76
2023/12/07 00:08:17;;;;;;;10.73;8.63;;;2.60;99.90;;;;;;5073979;28;20127;-76
2023/12/07 00:10:42;;;;;;;10.38;8.05;;;2.70;99.90;;;;;;5112914;27;20036;-76
2023/12/07 00:13:08;;;;;;;9.75;7.80;;;2.60;99.90;;;;;;5114246;27;20477;-75
2023/12/07 00:15:34;;;;;;;10.93;9.00;;;2.60;99.90;;;;;;5097997;28;20032;-76
2023/12/07 00:18:00;;;;;;;10.95;7.68;;;2.70;99.90;;;;;;5101859;28;20421;-76
2023/12/07 00:20:26;;;;;;;9.35;7.65;;;2.70;99.90;;;;;;5119444;27;20039;-75
2023/12/07 00:22:51;;;;;;;8.90;7.50;;;2.60;99.90;;;;;;5126994;27;20130;-75
2023/12/07 00:25:17;;;;;;;9.43;7.38;;;2.60;99.90;;;;;;5095066;28;20098;-76
2023/12/07 00:27:43;;;;;;;10.38;7.72;;;2.60;99.90;;;;;;5122186;27;20567;-76
2023/12/07 00:30:09;;;;;;;9.20;8.00;;;2.60;99.90;;;;;;5116625;27;20037;-76
2023/12/07 00:32:35;;;;;;;9.45;8.02;;;2.60;99.90;;;;;;5117360;27;20048;-76
2023/12/07 00:35:00;;;;;;;9.60;7.35;;;2.70;99.90;;;;;;5115993;27;20043;-76
2023/12/07 00:37:27;;;;;;;8.60;7.10;;;2.70;99.90;;;;;;5129191;27;20512;-75
2023/12/07 00:39:52;;;;;;;8.70;6.60;;;2.60;99.90;;;;;;5121036;27;20051;-75
2023/12/07 00:42:18;;;;;;;12.10;8.40;;;2.60;99.90;;;;;;5119059;27;20047;-75
2023/12/07 00:44:44;;;;;;;10.55;8.50;;;2.70;99.90;;;;;;5125029;27;20036;-75
2023/12/07 00:47:09;;;;;;;10.45;7.93;;;2.70;99.90;;;;;;5102752;28;20040;-75
2023/12/07 00:49:40;;;;;;;13.30;8.60;;;2.60;99.90;;;;;;5118092;27;20096;-76
2023/12/07 00:52:06;;;;;;;11.18;8.90;;;2.60;99.90;;;;;;5101513;28;20044;-76
2023/12/07 00:54:32;;;;;;;10.60;8.40;;;2.60;99.90;;;;;;5120407;27;20130;-75
2023/12/07 00:56:58;;;;;;;10.23;8.15;;;2.70;99.90;;;;;;5111035;27;20459;-76
2023/12/07 00:59:24;;;;;;;11.48;8.23;;;2.60;99.90;;;;;;5128812;27;20038;-76
2023/12/07 01:01:50;;;;;;;;;;;2.60;99.90;;;;;;5113650;27;20039;-76
2023/12/07 01:04:16;;;;;;;9.68;7.82;;;2.60;99.90;;;;;;5110611;28;20256;-75
2023/12/07 01:06:42;;;;;;;11.52;8.32;;;2.60;99.90;;;;;;5093450;28;20395;-75
2023/12/07 01:09:12;;;;;;;;;;;2.60;99.90;;;;;;5126690;28;20092;-75
2023/12/07 01:11:42;;;;;;;10.80;7.88;;;2.60;99.90;;;;;;5130982;27;19942;-75
2023/12/07 01:14:07;;;;;;;9.93;7.97;;;2.60;99.90;;;;;;5119351;27;20040;-75
2023/12/07 01:16:33;;;;;;;7.68;5.75;;;2.60;99.90;;;;;;5111995;28;20055;-75
2023/12/07 01:18:59;;;;;;;9.48;7.65;;;2.60;99.90;;;;;;5124633;27;20043;-75
2023/12/07 01:21:24;;;;;;;9.15;7.22;;;2.60;99.90;;;;;;5134481;27;20502;-75
2023/12/07 01:23:51;;;;;;;11.20;8.60;;;2.50;99.90;;;;;;5133882;27;20451;-75
2023/12/07 01:26:16;;;;;;;10.48;8.50;;;2.50;99.90;;;;;;5103858;28;20112;-75
2023/12/07 01:28:42;;;;;;;9.63;7.78;;;2.50;99.90;;;;;;5114827;27;20112;-75
2023/12/07 01:31:08;;;;;;;9.18;7.38;;;2.50;99.90;;;;;;5090936;27;20062;-75
2023/12/07 01:33:33;;;;;;;10.52;7.63;;;2.50;99.90;;;;;;5120326;27;20044;-75
2023/12/07 01:35:59;;;;;;;11.32;8.38;;;2.40;99.90;;;;;;5116238;27;20042;-75
2023/12/07 01:38:25;;;;;;;10.07;7.53;;;2.40;99.90;;;;;;5114714;27;20115;-75
2023/12/07 01:40:50;;;;;;;11.02;8.30;;;2.50;99.90;;;;;;5131157;27;20051;-75
2023/12/07 01:43:16;;;;;;;10.43;7.55;;;2.40;99.90;;;;;;5129012;27;20503;-75
2023/12/07 01:45:41;;;;;;;9.00;7.18;;;2.40;99.90;;;;;;5134185;27;20688;-75
2023/12/07 01:48:07;;;;;;;9.87;7.77;;;2.40;99.90;;;;;;5118188;27;20047;-75
2023/12/07 01:50:34;;;;;;;9.55;7.90;;;2.40;99.90;;;;;;5129962;27;20292;-75
2023/12/07 01:53:04;;;;;;;10.05;8.20;;;2.40;99.90;;;;;;5124062;27;20556;-75
2023/12/07 01:55:32;;;;;;;10.18;7.55;;;2.40;99.90;;;;;;5129411;27;20051;-75
2023/12/07 01:57:58;;;;;;;8.63;7.32;;;2.40;99.90;;;;;;5115803;27;20064;-75
2023/12/07 02:00:26;;;;;;;11.90;8.40;;;2.40;99.90;;;;;;5127384;27;20084;-75
2023/12/07 02:02:52;;;;;;;9.00;7.25;;;2.40;99.90;;;;;;5114699;27;20048;-75
2023/12/07 02:05:17;;;;;;;9.40;7.35;;;2.40;99.90;;;;;;5125162;27;20043;-75
2023/12/07 02:07:43;;;;;;;11.63;8.07;;;2.40;99.90;;;;;;5118459;27;20136;-75
2023/12/07 02:10:10;;;;;;;11.55;7.90;;;2.40;99.90;;;;;;5114262;27;20058;-75
2023/12/07 02:12:36;;;;;;;11.23;8.35;;;2.40;99.90;;;;;;5113169;28;20126;-75
2023/12/07 02:15:03;;;;;;;9.57;7.53;;;2.40;99.90;;;;;;5118086;27;20142;-75
2023/12/07 02:17:50;;;;;;;9.77;7.50;;;2.40;99.90;;;;;;5093066;28;20126;-75
2023/12/07 02:20:31;;;;;;;;;;;2.50;99.90;;;;;;5104570;27;20435;-75
2023/12/07 02:23:01;;;;;;;10.63;8.07;;;2.40;99.90;;;;;;5099809;27;19919;-75
2023/12/07 02:25:40;;;;;;;11.18;7.75;;;2.40;99.90;;;;;;5126709;27;20050;-75
2023/12/07 02:28:06;;;;;;;9.55;6.40;;;2.40;99.90;;;;;;5130535;27;20058;-75
2023/12/07 02:30:31;;;;;;;8.73;6.25;;;2.40;99.90;;;;;;5120307;27;20055;-75
2023/12/07 02:32:57;;;;;;;7.22;6.28;;;2.40;99.90;;;;;;5120957;27;20047;-75
2023/12/07 02:35:24;;;;;;;6.25;5.13;;;2.40;99.90;;;;;;5104345;27;20062;-74
2023/12/07 02:37:50;;;;;;;;;;;2.40;99.90;;;;;;5133088;27;20046;-75
2023/12/07 02:40:23;;;;;;;8.98;6.85;;;2.40;99.90;;;;;;5114289;27;19919;-75
2023/12/07 02:42:50;;;;;;;9.90;7.35;;;2.40;99.90;;;;;;5095647;28;20104;-75
2023/12/07 02:45:15;;;;;;;;;;;2.40;99.90;;;;;;5096831;28;21244;-75
2023/12/07 02:47:43;;;;;;;7.13;5.97;;;2.40;99.90;;;;;;5095949;28;19926;-75
2023/12/07 02:50:09;;;;;;;9.13;6.28;;;2.40;99.90;;;;;;5113878;27;20051;-75
2023/12/07 02:52:35;;;;;;;7.65;6.15;;;2.40;99.90;;;;;;5132907;27;20132;-75
2023/12/07 02:55:02;;;;;;;9.38;6.90;;;2.40;99.90;;;;;;5114713;27;20043;-75
2023/12/07 02:57:29;;;;;;;10.77;7.10;;;2.40;99.90;;;;;;5090994;28;20465;-75
2023/12/07 02:59:55;;;;;;;7.57;6.38;;;2.40;99.90;;;;;;5069727;28;20039;-75
2023/12/07 03:02:21;;;;;;;8.02;5.90;;;2.40;99.90;;;;;;5126939;27;20043;-75
2023/12/07 03:04:46;;;;;;;7.18;5.90;;;2.40;99.90;;;;;;5126463;27;20050;-75
2023/12/07 03:07:12;;;;;;;7.10;5.40;;;2.40;99.90;;;;;;5125729;27;20071;-75
2023/12/07 03:09:38;;;;;;;6.43;5.05;;;2.40;99.90;;;;;;5111316;27;20430;-75
2023/12/07 03:12:04;;;;;;;5.53;3.80;;;2.40;99.90;;;;;;5116523;27;20515;-75
2023/12/07 03:14:30;;;;;;;5.82;4.70;;;2.40;99.90;;;;;;5119847;27;20042;-75
2023/12/07 03:16:55;;;;;;;5.72;4.47;;;2.30;99.90;;;;;;5096217;28;20047;-75
2023/12/07 03:19:21;;;;;;;4.47;3.72;;;2.30;99.90;;;;;;5111903;27;20112;-75
2023/12/07 03:21:47;;;;;;;5.65;4.20;;;2.30;99.90;;;;;;5114694;27;20071;-75
2023/12/07 03:24:13;;;;;;;6.93;5.72;;;2.30;99.90;;;;;;5111944;28;20043;-75
2023/12/07 03:26:39;;;;;;;6.30;5.35;;;2.30;99.90;;;;;;5114858;27;20096;-75
2023/12/07 03:29:04;;;;;;;7.72;5.97;;;2.30;99.90;;;;;;5111400;28;20509;-75
2023/12/07 03:31:30;;;;;;;6.38;5.30;;;2.30;99.90;;;;;;5113119;27;20123;-75
2023/12/07 03:33:56;;;;;;;7.30;6.00;;;2.30;99.90;;;;;;5114812;27;20051;-75
2023/12/07 03:36:22;;;;;;;11.00;6.18;;;2.30;99.90;;;;;;5114629;27;20492;-75
2023/12/07 03:38:49;;;;;;;7.35;6.10;;;2.30;99.90;;;;;;5111798;27;20118;-75
2023/12/07 03:41:15;;;;;;;10.65;6.85;;;2.30;99.90;;;;;;5109126;28;20044;-75
2023/12/07 03:43:40;;;;;;;8.43;6.60;;;2.30;99.90;;;;;;5116028;27;20052;-75
2023/12/07 03:46:07;;;;;;;8.60;6.38;;;2.30;99.90;;;;;;5111017;27;20042;-75
2023/12/07 03:48:34;;;;;;;7.85;6.20;;;2.30;99.90;;;;;;5115924;27;20414;-75
2023/12/07 03:51:00;;;;;;;;;;;2.30;99.90;;;;;;5077178;28;20083;-75
2023/12/07 03:53:25;;;;;;;6.93;5.38;;;2.30;99.90;;;;;;5120602;27;19996;-75
2023/12/07 03:55:51;;;;;;;7.80;6.10;;;2.30;99.90;;;;;;5111002;28;20131;-75
2023/12/07 03:58:17;;;;;;;10.02;6.90;;;2.30;99.90;;;;;;5118038;27;20035;-76
2023/12/07 04:00:43;;;;;;;8.90;6.00;;;2.20;99.90;;;;;;5107936;28;20406;-75
2023/12/07 04:03:09;;;;;;;;;;;2.30;99.90;;;;;;5121002;27;20047;-76
2023/12/07 04:05:35;;;;;;;9.60;6.90;;;2.30;99.90;;;;;;5116379;27;20443;-75
2023/12/07 04:08:00;;;;;;;9.15;6.60;;;2.30;99.90;;;;;;5108386;28;20066;-75
2023/12/07 04:10:26;;;;;;;8.80;6.90;;;2.30;99.90;;;;;;5111257;28;20079;-75
2023/12/07 04:12:54;;;;;;;9.57;6.70;;;2.20;99.90;;;;;;5110371;28;20055;-75
2023/12/07 04:15:20;;;;;;;9.05;6.68;;;2.20;99.90;;;;;;5093649;28;20055;-75
2023/12/07 04:17:47;;;;;;;8.18;6.20;;;2.20;99.90;;;;;;5110416;27;20050;-75
2023/12/07 04:20:15;;;;;;;;;;;2.30;99.90;;;;;;5111169;28;20035;-75
2023/12/07 04:22:41;;;;;;;7.97;6.43;;;2.20;99.90;;;;;;5114323;27;19973;-75
2023/12/07 04:25:07;;;;;;;8.68;6.10;;;2.20;99.90;;;;;;5110545;28;20058;-75
2023/12/07 04:27:33;;;;;;;8.02;6.50;;;2.10;99.90;;;;;;5103876;27;20078;-75
2023/12/07 04:29:59;;;;;;;8.05;6.90;;;2.10;99.90;;;;;;5113906;27;20082;-75
2023/12/07 04:32:25;;;;;;;8.70;6.57;;;2.10;99.90;;;;;;5076329;28;20040;-75
2023/12/07 04:34:52;;;;;;;8.07;5.85;;;2.10;99.90;;;;;;5110490;27;20075;-76
2023/12/07 04:37:18;;;;;;;7.65;5.72;;;2.10;99.90;;;;;;5109456;28;20096;-76
2023/12/07 04:39:43;;;;;;;11.98;6.93;;;2.00;99.90;;;;;;5119867;27;20568;-75
2023/12/07 04:42:09;;;;;;;11.18;7.13;;;2.10;99.90;;;;;;5131189;27;20039;-75
2023/12/07 04:44:35;;;;;;;11.15;7.95;;;2.10;99.90;;;;;;5125226;27;20474;-75
2023/12/07 04:47:00;;;;;;;7.53;6.38;;;2.10;99.90;;;;;;5109057;28;20368;-75
2023/12/07 04:49:26;;;;;;;11.27;6.97;;;2.10;99.90;;;;;;5105765;27;20165;-75
2023/12/07 04:51:52;;;;;;;12.13;7.38;;;2.00;99.90;;;;;;5092070;28;20043;-76
2023/12/07 04:54:19;;;;;;;11.13;6.85;;;2.00;99.90;;;;;;5119158;27;20048;-75
2023/12/07 04:56:44;;;;;;;10.02;7.35;;;2.10;99.90;;;;;;5110164;28;20047;-75
2023/12/07 04:59:10;;;;;;;8.70;7.32;;;2.00;99.90;;;;;;5111115;28;20116;-75
2023/12/07 05:01:36;;;;;;;9.57;6.78;;;2.10;99.90;;;;;;5117232;27;20116;-75
2023/12/07 05:04:03;;;;;;;11.13;7.70;;;2.00;99.90;;;;;;5108858;28;20053;-75
2023/12/07 05:06:32;;;;;;;8.35;6.60;;;2.00;99.90;;;;;;5104210;27;20040;-75
2023/12/07 05:08:58;;;;;;;9.50;7.38;;;2.00;99.90;;;;;;5106585;28;20075;-75
2023/12/07 05:11:24;;;;;;;9.13;6.65;;;2.00;99.90;;;;;;5096111;28;20086;-76
2023/12/07 05:13:49;;;;;;;8.80;6.82;;;2.00;99.90;;;;;;5110519;28;20043;-75
2023/12/07 05:16:15;;;;;;;10.23;7.07;;;2.00;99.90;;;;;;5104042;28;20040;-75
2023/12/07 05:18:41;;;;;;;8.80;7.00;;;2.00;99.90;;;;;;5066285;28;20044;-75
2023/12/07 05:21:07;;;;;;;8.73;7.00;;;1.90;99.90;;;;;;5085721;28;20035;-75
2023/12/07 05:23:33;;;;;;;8.32;6.72;;;2.00;99.90;;;;;;5106789;28;20071;-80
2023/12/07 05:25:59;;;;;;;8.95;6.90;;;2.00;99.90;;;;;;5097035;28;20458;-75
2023/12/07 05:28:26;;;;;;;11.13;7.53;;;2.00;99.90;;;;;;5104553;28;20047;-75
2023/12/07 05:30:52;;;;;;;11.30;7.55;;;2.00;99.90;;;;;;5124627;27;20066;-75
2023/12/07 05:33:19;;;;;;;9.48;7.63;;;2.00;99.90;;;;;;5084914;28;20044;-75
2023/12/07 05:35:45;;;;;;;10.30;8.02;;;1.90;99.90;;;;;;5088566;28;20036;-75
2023/12/07 05:38:11;;;;;;;11.07;7.32;;;2.00;99.90;;;;;;5115362;28;20075;-75
2023/12/07 05:40:37;;;;;;;11.00;8.27;;;1.90;99.90;;;;;;5106697;28;20082;-75
2023/12/07 05:43:03;;;;;;;12.63;8.57;;;1.90;99.90;;;;;;5095007;28;20039;-75
2023/12/07 05:45:30;;;;;;;13.50;8.43;;;1.90;99.90;;;;;;5102619;28;20109;-76
2023/12/07 05:47:56;;;;;;;10.15;8.27;;;1.90;99.90;;;;;;5111834;28;20816;-76
2023/12/07 05:50:21;;;;;;;9.88;7.22;;;1.90;99.90;;;;;;5089975;28;20069;-75
2023/12/07 05:52:47;;;;;;;14.63;9.63;;;1.90;99.90;;;;;;5098377;28;20500;-75
2023/12/07 05:55:13;;;;;;;13.68;9.55;;;1.90;99.90;;;;;;5115654;28;20032;-76
2023/12/07 05:57:40;;;;;;;13.55;9.85;;;1.90;99.90;;;;;;5091819;28;20789;-75
2023/12/07 06:00:09;;;;;;;;;;;1.90;99.90;;;;;;5126932;27;20110;-75
2023/12/07 06:02:35;;;;;;;14.15;9.48;;;1.80;99.90;;;;;;5111137;27;19919;-76
2023/12/07 06:05:03;;;;;;;15.30;9.88;;;1.80;99.90;;;;;;5104052;28;20086;-75
2023/12/07 06:07:29;;;;;;;13.35;10.05;;;1.90;99.90;;;;;;5123759;27;20130;-75
2023/12/07 06:09:55;;;;;;;14.07;10.20;;;1.80;99.90;;;;;;5121835;27;20118;-75
2023/12/07 06:12:21;;;;;;;14.07;9.70;;;1.90;99.90;;;;;;5124469;27;20131;-79
2023/12/07 06:14:48;;;;;;;11.40;8.73;;;1.90;99.90;;;;;;5113055;27;20036;-75
2023/12/07 06:17:14;;;;;;;13.02;9.43;;;1.90;99.90;;;;;;5122513;27;20035;-75
2023/12/07 06:19:39;;;;;;;11.05;8.63;;;1.80;99.90;;;;;;5091770;28;20050;-75
2023/12/07 06:22:06;;;;;;;13.38;9.57;;;1.80;99.90;;;;;;5099232;27;20038;-76
2023/12/07 06:24:33;;;;;;;11.27;8.77;;;1.80;99.90;;;;;;5119824;27;20071;-76
2023/12/07 06:27:01;;;;;;;12.65;7.85;;;1.80;99.90;;;;;;5111006;27;20801;-76
2023/12/07 06:29:27;;;;;;;8.98;7.55;;;1.90;99.90;;;;;;5110042;27;20067;-76
2023/12/07 06:31:53;;;;;;;9.73;7.53;;;1.80;99.90;;;;;;5086144;28;20059;-80
2023/12/07 06:34:19;;;;;;;9.90;7.07;;;1.90;99.90;;;;;;5107386;27;20055;-76
2023/12/07 06:36:45;;;;;;;;;;;1.80;99.90;;;;;;5113141;28;20104;-76
2023/12/07 06:39:10;;;;;;;9.60;7.30;;;1.90;99.90;;;;;;5106508;27;20435;-75
2023/12/07 06:41:36;;;;;;;10.27;7.60;;;1.90;99.90;;;;;;5092193;28;20040;-75
2023/12/07 06:44:02;;;;;;;8.68;7.20;;;1.90;99.90;;;;;;5103961;28;20068;-74
2023/12/07 06:46:28;;;;;;;8.55;7.05;;;1.90;99.90;;;;;;5088746;28;20098;-75
2023/12/07 06:48:54;;;;;;;7.20;5.88;;;1.90;99.90;;;;;;5101704;28;20048;-76
2023/12/07 06:51:20;;;;;;;7.28;5.85;;;1.80;99.90;;;;;;5106945;27;20058;-76
2023/12/07 06:53:45;;;;;;;6.95;5.45;;;1.80;99.90;;;;;;5086116;28;20475;-75
2023/12/07 06:56:11;;;;;;;6.75;5.53;;;1.80;99.90;;;;;;5092638;27;20395;-75
2023/12/07 06:58:37;;;;;;;7.18;5.22;;;1.80;99.90;;;;;;5109258;27;20047;-75
2023/12/07 07:01:02;;;;;;;7.15;5.45;;;1.80;99.90;;;;;;5092617;28;20394;-75
2023/12/07 07:03:28;;;;;;;9.10;6.65;;;1.70;99.90;;;;;;5112777;27;20046;-75
2023/12/07 07:05:59;;;;;;;9.10;6.78;;;1.80;99.90;;;;;;5112148;27;20078;-75
2023/12/07 07:08:24;;;;;;;9.00;6.95;;;1.80;99.90;;;;;;5114602;27;20047;-75
2023/12/07 07:10:50;;;;;;;8.00;6.00;;;1.80;99.90;;;;;;5104606;28;20047;-75
2023/12/07 07:13:16;;;;;;;10.73;8.65;;;1.80;99.90;;;;;;5105116;28;20155;-76
2023/12/07 07:15:43;;;;;;;9.70;7.90;;;1.80;99.90;;;;;;5110033;27;20050;-75
2023/12/07 07:18:09;;;;;;;9.95;6.93;;;1.70;99.90;;;;;;5094554;28;20044;-74
2023/12/07 07:20:35;;;;;;;7.57;6.07;;;1.70;99.90;;;;;;5061674;28;20082;-75
2023/12/07 07:23:00;;;;;;;7.35;6.00;;;1.70;99.90;;;;;;5112139;28;20047;-75
2023/12/07 07:25:26;;;;;;;8.52;6.80;;;1.70;99.90;;;;;;5110188;28;20398;-75
2023/12/07 07:27:54;;;;;;;8.93;6.70;;;1.70;99.90;;;;;;5111601;28;20126;-75
2023/12/07 07:30:20;;;;;;;7.35;6.18;;;1.70;99.90;;;;;;5111700;28;20115;-75
2023/12/07 07:32:46;;;;;;;8.18;5.82;;;1.80;99.90;;;;;;5111709;28;20048;-75
2023/12/07 07:35:12;;;;;;;6.80;5.50;;;1.80;99.90;;;;;;5111594;28;20047;-75
2023/12/07 07:37:39;;;;;;;7.85;6.10;;;1.70;99.90;;;;;;5111732;28;20047;-75
2023/12/07 07:40:06;;;;;;;8.45;5.90;;;1.80;99.90;;;;;;5111310;28;20092;-75
2023/12/07 07:42:35;;;;;;;7.72;6.25;;;1.70;99.90;;;;;;5111588;28;20568;-76
2023/12/07 07:45:01;;;;;;;7.57;5.85;;;1.80;99.90;;;;;;5111370;28;20545;-76
2023/12/07 07:47:26;;;;;;;7.63;6.18;;;1.80;99.90;;;;;;5111491;28;20054;-75
2023/12/07 07:49:52;;;;;;;9.18;6.78;;;1.80;99.90;;;;;;5111171;28;20036;-75
2023/12/07 07:52:19;;;;;;;9.93;7.38;;;1.80;99.90;;;;;;5094477;28;20403;-75
2023/12/07 07:54:44;;;;;;;;;;;1.90;99.90;;;;;;5111656;28;20101;-75
2023/12/07 07:57:10;;;;;;;12.45;9.30;;;1.90;99.90;;;;;;5094194;28;20298;-75
2023/12/07 07:59:36;;;;;;;12.02;8.68;;;2.00;99.90;;;;;;5111185;28;20143;-75
2023/12/07 08:02:02;;;;;;;13.68;9.55;;;2.00;99.90;;;;;;5109451;28;20063;-75
2023/12/07 08:04:28;;;;;;;;;;;2.00;99.90;;;;;;5111636;28;20121;-76
2023/12/07 08:06:53;;;;;;;14.63;9.27;;;2.00;99.90;;;;;;5109320;28;19925;-75
2023/12/07 08:09:19;;;;;;;13.38;9.63;;;2.00;99.90;;;;;;5077527;28;20054;-75
2023/12/07 08:11:44;;;;;;;13.60;10.20;;;2.10;99.90;;;;;;5111151;28;20079;-75
2023/12/07 08:14:10;;;;;;;13.63;9.73;;;2.20;99.90;;;;;;5110561;28;20556;-75
2023/12/07 08:16:36;;;;;;;13.13;9.30;;;2.10;99.90;;;;;;5094041;28;20052;-75
2023/12/07 08:19:01;;;;;;;12.90;9.27;;;2.20;99.90;;;;;;5111081;28;20043;-75
2023/12/07 08:21:29;;;;;;;13.93;10.63;;;2.20;99.90;;;;;;5076730;28;20463;-75
2023/12/07 08:23:55;;;;;;;13.95;9.70;;;2.30;99.90;;;;;;5109231;28;20047;-75
2023/12/07 08:26:21;;;;;;;14.25;9.73;;;2.30;99.90;;;;;;5076763;28;20070;-75
2023/12/07 08:28:47;;;;;;;14.40;9.75;;;2.30;99.90;;;;;;5109139;28;20117;-75
2023/12/07 08:31:12;;;;;;;14.52;10.20;;;2.40;99.90;;;;;;5093107;28;20080;-75
2023/12/07 08:33:39;;;;;;;15.15;9.90;;;2.40;99.90;;;;;;5093296;28;20051;-75
2023/12/07 08:36:05;;;;;;;;;;;2.40;99.90;;;;;;5094091;28;20039;-75
2023/12/07 08:38:32;;;;;;;13.77;9.88;;;2.40;99.90;;;;;;5110421;28;19924;-75
2023/12/07 08:40:58;;;;;;;17.00;11.50;;;2.40;99.90;;;;;;5110281;28;20039;-75
2023/12/07 08:43:24;;;;;;;15.95;10.80;;;2.40;99.90;;;;;;5093595;28;20044;-75
2023/12/07 08:45:52;;;;;;;13.95;10.45;;;2.40;99.90;;;;;;5110509;28;20043;-75
2023/12/07 08:48:20;;;;;;;18.65;12.70;;;2.30;99.90;;;;;;5093747;28;20054;-75
2023/12/07 08:50:46;;;;;;;18.25;11.95;;;2.40;99.90;;;;;;5093487;28;20039;-75
2023/12/07 08:53:12;;;;;;;17.05;11.88;;;2.30;99.90;;;;;;5110335;28;20414;-76
2023/12/07 08:55:38;;;;;;;16.45;11.07;;;2.30;99.90;;;;;;5110241;28;20119;-76
2023/12/07 08:58:06;;;;;;;19.23;13.15;;;2.20;99.90;;;;;;5093420;28;20039;-76
2023/12/07 09:00:32;;;;;;;19.50;13.27;;;2.10;99.90;;;;;;5110010;28;20546;-76
2023/12/07 09:02:58;;;;;;;17.05;12.20;;;2.10;99.90;;;;;;5110115;28;20506;-75
2023/12/07 09:05:26;;;;;;;19.55;13.15;;;2.00;99.90;;;;;;5110022;28;20052;-76
2023/12/07 09:07:52;;;;;;;17.98;12.45;;;2.10;99.90;;;;;;5108299;28;20127;-76
2023/12/07 09:10:18;;;;;;;18.50;11.63;;;2.10;99.90;;;;;;5109325;28;20040;-76
2023/12/07 09:12:44;;;;;;;19.17;12.90;;;2.00;99.90;;;;;;5091904;28;20044;-76
2023/12/07 09:15:10;;;;;;;20.23;14.10;;;2.00;99.90;;;;;;5109334;28;20054;-76
2023/12/07 09:17:37;;;;;;;19.08;13.10;;;2.00;99.90;;;;;;5109161;28;20130;-76
2023/12/07 09:20:12;;;;;;;17.40;12.52;;;2.00;99.90;;;;;;5109920;28;20167;-76
2023/12/07 09:22:40;;;;;;;18.17;12.70;;;1.90;99.90;;;;;;5109869;28;20573;-76
2023/12/07 09:25:07;;;;;;;18.65;12.85;;;1.90;99.90;;;;;;5109804;28;20055;-76
2023/12/07 09:27:34;;;;;;;17.73;12.40;;;1.90;99.90;;;;;;5110364;28;20031;-76
2023/12/07 09:30:05;;;;;;;20.42;13.73;;;1.90;99.90;;;;;;5109546;28;20105;-76
2023/12/07 09:32:30;;;;;;;23.60;13.95;;;1.90;99.90;;;;;;5110027;28;20490;-76
2023/12/07 09:34:56;;;;;;;22.88;15.57;;;1.90;99.90;;;;;;5096880;28;20039;-76
2023/12/07 09:37:22;;;;;;;24.02;16.30;;;1.90;99.90;;;;;;5114435;28;20090;-76
2023/12/07 09:39:47;;;;;;;23.48;16.70;;;1.90;99.90;;;;;;5096896;28;20371;-76
2023/12/07 09:42:13;;;;;;;24.60;16.60;;;1.80;99.90;;;;;;5114053;28;20031;-76
2023/12/07 09:44:39;;;;;;;24.88;17.08;;;1.90;99.90;;;;;;5113990;28;20032;-76
2023/12/07 09:47:05;;;;;;;25.73;16.58;;;1.80;99.90;;;;;;5113679;28;20129;-76
2023/12/07 09:49:31;;;;;;;26.17;17.02;;;1.90;99.90;;;;;;5113722;28;20134;-76
2023/12/07 09:51:59;;;;;;;23.85;16.35;;;1.80;99.90;;;;;;5113681;28;20138;-75
2023/12/07 09:54:26;;;;;;;23.67;16.55;;;1.90;99.90;;;;;;5113432;28;20092;-75
2023/12/07 09:56:54;;;;;;;23.90;16.55;;;1.90;99.90;;;;;;5113554;28;20439;-75
2023/12/07 09:59:20;;;;;;;23.88;16.27;;;1.90;99.90;;;;;;5113420;28;20044;-75
2023/12/07 10:01:46;;;;;;;22.98;16.02;;;1.90;99.90;;;;;;5096410;28;20081;-75
2023/12/07 10:04:19;;;;;;;22.13;15.60;;;2.00;99.90;;;;;;5113396;28;20050;-75
2023/12/07 10:06:45;;;;;;;25.50;17.38;;;2.00;99.90;;;;;;5113392;28;20055;-75
2023/12/07 10:09:11;;;;;;;25.90;16.48;;;2.00;99.90;;;;;;5094794;28;20079;-75
2023/12/07 10:11:38;;;;;;;22.00;15.88;;;2.10;99.90;;;;;;5112151;28;20130;-75
2023/12/07 10:14:07;;;;;;;20.95;15.25;;;2.20;99.90;;;;;;5111809;28;20452;-75
2023/12/07 10:16:36;;;;;;;22.00;14.65;;;2.20;99.90;;;;;;5112860;28;20055;-75
2023/12/07 10:19:19;;;;;;;21.58;14.43;;;2.30;99.90;;;;;;5113316;28;20114;-75
2023/12/07 10:21:45;;;;;;;21.23;15.30;;;2.30;99.90;;;;;;5111613;28;20040;-75
2023/12/07 10:24:11;;;;;;;21.77;15.80;;;2.40;99.90;;;;;;5112904;28;20047;-75
2023/12/07 10:26:40;;;;;;;24.80;16.60;;;2.40;99.90;;;;;;5096103;28;20395;-75
2023/12/07 10:29:06;;;;;;;21.17;15.02;;;2.60;99.90;;;;;;5095619;28;20044;-75
2023/12/07 10:31:32;;;;;;;20.77;15.05;;;2.60;99.90;;;;;;5112401;28;20062;-75
2023/12/07 10:34:00;;;;;;;23.30;16.15;;;2.60;99.90;;;;;;5112725;28;20073;-75
2023/12/07 10:36:26;;;;;;;22.23;15.73;;;2.80;99.90;;;;;;5094575;28;20044;-75
2023/12/07 10:38:52;;;;;;;24.48;17.73;;;3.10;99.90;;;;;;5094979;28;20036;-75
2023/12/07 10:41:20;;;;;;;23.23;16.33;;;3.10;99.90;;;;;;5112497;28;20051;-75
2023/12/07 10:43:51;;;;;;;21.33;15.05;;;3.30;99.90;;;;;;5112127;28;20075;-75
2023/12/07 10:46:19;;;;;;;22.23;15.73;;;3.50;99.90;;;;;;5113588;28;20537;-75
2023/12/07 10:48:48;;;;;;;22.90;15.82;;;3.60;99.90;;;;;;5112601;28;20044;-75
2023/12/07 10:51:24;;;;;;;21.27;15.00;;;3.70;99.90;;;;;;5112375;28;20043;-75
2023/12/07 10:53:51;;;;;;;17.85;13.80;;;3.90;99.90;;;;;;5112359;28;20101;-74
2023/12/07 10:56:28;;;;;;;20.58;15.07;;;4.10;99.90;;;;;;5112431;28;20054;-75
2023/12/07 10:58:55;;;;;;;23.20;15.55;;;4.20;99.90;;;;;;5112291;28;20110;-75
2023/12/07 11:01:22;;;;;;;20.92;15.90;;;4.40;99.90;;;;;;5112381;28;20048;-75
2023/12/07 11:03:52;;;;;;;22.20;15.90;;;4.40;99.90;;;;;;5112363;28;20402;-76
2023/12/07 11:06:19;;;;;;;20.33;15.25;;;4.50;99.90;;;;;;5112432;28;20051;-76
2023/12/07 11:08:58;;;;;;;21.05;15.02;;;4.60;99.90;;;;;;5095531;28;20483;-76
2023/12/07 11:11:36;;;;;;;19.88;14.05;;;4.70;99.90;;;;;;5089929;28;20123;-76
2023/12/07 11:14:12;;;;;;;19.67;14.40;;;4.80;99.90;;;;;;5091038;28;20044;-76
2023/12/07 11:16:41;;;;;;;20.73;14.65;;;4.90;99.90;;;;;;5074376;28;20123;-76
2023/12/07 11:19:26;;;;;;;22.02;14.60;;;5.00;99.90;;;;;;5091665;28;20047;-76
2023/12/07 11:21:52;;;;;;;19.88;14.85;;;5.10;99.90;;;;;;5091445;28;20032;-76
2023/12/07 11:24:17;;;;;;;21.27;14.43;;;5.10;99.90;;;;;;5091540;28;20044;-76
2023/12/07 11:26:44;;;;;;;19.05;13.52;;;5.20;99.90;;;;;;5091481;28;20130;-76
2023/12/07 11:29:10;;;;;;;19.75;14.10;;;5.40;99.90;;;;;;5091286;28;20044;-76
2023/12/07 11:31:37;;;;;;;21.50;14.05;;;5.40;99.90;;;;;;5091296;28;20529;-76
2023/12/07 11:34:07;;;;;;;19.30;14.38;;;5.60;99.90;;;;;;5108811;28;20522;-76
2023/12/07 11:36:33;;;;;;;16.65;12.70;;;5.60;99.90;;;;;;5111909;28;20058;-76
2023/12/07 11:39:06;;;;;;;16.88;13.15;;;5.70;99.90;;;;;;5111683;28;20471;-75
2023/12/07 11:41:44;;;;;;;15.23;11.77;;;5.80;99.90;;;;;;5111627;28;20134;-76
2023/12/07 11:44:10;;;;;;;14.70;11.85;;;5.80;99.90;;;;;;5094401;28;20083;-76
2023/12/07 11:46:37;;;;;;;18.70;12.93;;;5.90;99.90;;;;;;5111396;28;20054;-76
2023/12/07 11:49:05;;;;;;;16.05;12.80;;;5.80;99.90;;;;;;5094566;28;20047;-76
2023/12/07 11:51:31;;;;;;;17.67;12.48;;;5.90;99.90;;;;;;5094648;28;20075;-76
2023/12/07 11:53:57;;;;;;;16.52;12.70;;;5.90;99.90;;;;;;5094595;28;20043;-76
2023/12/07 11:56:22;;;;;;;16.33;11.73;;;5.80;99.90;;;;;;5093859;28;20054;-76
2023/12/07 11:58:49;;;;;;;17.42;13.10;;;5.90;99.90;;;;;;5094462;28;20035;-74
2023/12/07 12:01:15;;;;;;;;;;;5.90;99.90;;;;;;5111784;28;20386;-75
2023/12/07 12:03:40;;;;;;;19.40;12.90;;;5.90;99.90;;;;;;5111292;28;20030;-75
2023/12/07 12:06:10;;;;;;;17.45;13.45;;;6.00;99.90;;;;;;5110871;28;20108;-75
2023/12/07 12:08:35;;;;;;;17.77;13.57;;;5.90;99.90;;;;;;5111102;28;20043;-75
2023/12/07 12:11:01;;;;;;;15.75;12.00;;;6.00;99.90;;;;;;5109387;28;20452;-75
2023/12/07 12:13:33;;;;;;;15.02;11.85;;;5.90;99.90;;;;;;5110465;28;20050;-74
2023/12/07 12:15:59;;;;;;;16.83;12.35;;;5.90;99.90;;;;;;5109967;28;20089;-74
2023/12/07 12:18:26;;;;;;;15.85;11.93;;;5.90;99.90;;;;;;5110479;28;20031;-74
2023/12/07 12:20:53;;;;;;;16.25;12.07;;;5.90;99.90;;;;;;5110510;28;20043;-75
2023/12/07 12:23:19;;;;;;;16.50;12.35;;;5.90;99.90;;;;;;5111036;28;20116;-75
2023/12/07 12:25:46;;;;;;;14.07;11.27;;;5.90;99.90;;;;;;5093671;28;20074;-75
2023/12/07 12:28:16;;;;;;;14.95;11.68;;;5.90;99.90;;;;;;5110875;28;20050;-75
2023/12/07 12:30:42;;;;;;;15.38;12.02;;;5.90;99.90;;;;;;5110031;28;20067;-75
2023/12/07 12:33:07;;;;;;;18.55;11.98;;;5.80;99.90;;;;;;5110277;28;20127;-75
2023/12/07 12:35:33;;;;;;;15.57;11.88;;;5.70;99.90;;;;;;5093373;28;20131;-75
2023/12/07 12:38:00;;;;;;;16.23;12.90;;;5.60;99.90;;;;;;5110811;28;20088;-74
2023/12/07 12:40:31;;;;;;;15.20;11.30;;;5.40;99.90;;;;;;5110603;28;20148;-75
2023/12/07 12:42:57;;;;;;;13.82;10.88;;;5.20;99.90;;;;;;5110724;28;20114;-75
2023/12/07 12:45:23;;;;;;;17.67;12.60;;;4.90;99.90;;;;;;5093759;28;20402;-74
2023/12/07 12:47:49;;;;;;;19.60;13.95;;;4.50;99.90;;;;;;5110566;28;20096;-74